createdAt,value
2019-05-25T00:08:03.023Z,48.0
2019-05-25T00:18:17.130Z,47.9
2019-05-25T00:28:31.398Z,48.3
2019-05-25T00:38:45.339Z,48.3
2019-05-25T00:48:58.366Z,48.2
2019-05-25T00:59:11.489Z,47.9
2019-05-25T01:09:24.734Z,48.8
2019-05-25T01:20:08.618Z,48.7
2019-05-25T01:30:52.338Z,48.6
2019-05-25T01:41:05.889Z,48.6
2019-05-25T01:51:20.095Z,48.4
2019-05-25T02:01:34.015Z,48.8
2019-05-25T02:11:47.371Z,49.6
2019-05-25T02:22:02.067Z,48.7
2019-05-25T02:32:15.722Z,48.4
2019-05-25T02:42:29.243Z,48.5
2019-05-25T02:52:43.467Z,48.1
2019-05-25T03:02:57.997Z,48.0
2019-05-25T03:13:11.629Z,47.8
2019-05-25T03:23:25.065Z,48.4
2019-05-25T03:33:38.458Z,49.2
2019-05-25T03:43:52.220Z,50.5
2019-05-25T03:54:05.571Z,50.9
2019-05-25T04:04:50.325Z,51.4
2019-05-25T04:15:03.719Z,52.1
2019-05-25T04:25:17.851Z,53.4
2019-05-25T04:35:31.355Z,52.2
2019-05-25T04:45:45.308Z,51.3
2019-05-25T04:55:58.903Z,50.6
2019-05-25T05:06:13.083Z,49.9
2019-05-25T05:16:24.055Z,49.7
2019-05-25T05:26:37.702Z,49.3
2019-05-25T05:36:51.468Z,49.5
2019-05-25T05:47:03.212Z,49.8
2019-05-25T05:57:47.564Z,49.5
2019-05-25T06:08:00.751Z,49.7
2019-05-25T06:18:12.564Z,49.4
2019-05-25T06:28:26.193Z,49.9
2019-05-25T06:38:39.549Z,49.9
2019-05-25T06:48:53.360Z,51.0
2019-05-25T06:59:07.061Z,51.0
2019-05-25T07:09:20.245Z,50.4
2019-05-25T07:19:33.553Z,50.5
2019-05-25T07:29:47.864Z,50.8
2019-05-25T07:40:32.779Z,50.5
2019-05-25T07:50:47.405Z,49.5
2019-05-25T08:01:01.496Z,47.9
2019-05-25T08:11:13.306Z,46.0
2019-05-25T08:21:27.422Z,44.2
2019-05-25T08:31:41.385Z,44.0
2019-05-25T08:41:55.014Z,43.7
2019-05-25T08:52:40.490Z,44.5
2019-05-25T09:04:16.004Z,44.7
2019-05-25T09:15:05.859Z,43.3
2019-05-25T09:25:18.195Z,41.6
2019-05-25T09:35:34.133Z,42.0
2019-05-25T09:45:52.699Z,41.7
2019-05-25T09:56:10.717Z,41.0
2019-05-25T10:06:57.785Z,40.3
2019-05-25T10:17:13.803Z,40.4
2019-05-25T10:27:41.249Z,40.4
2019-05-25T10:37:56.293Z,40.3
2019-05-25T10:48:15.932Z,40.4
2019-05-25T10:59:04.558Z,39.9
2019-05-25T11:10:07.661Z,40.3
2019-05-25T11:20:56.370Z,40.2
2019-05-25T11:32:04.264Z,40.5
2019-05-25T11:42:16.593Z,40.9
2019-05-25T11:52:34.043Z,41.0
2019-05-25T12:02:50.937Z,38.9
2019-05-25T12:13:38.787Z,39.0
2019-05-25T12:23:51.810Z,38.0
2019-05-25T12:34:37.342Z,37.5
2019-05-25T12:44:53.947Z,36.8
2019-05-25T12:55:39.248Z,37.3
2019-05-25T13:05:54.335Z,37.6
2019-05-25T13:16:10.761Z,37.5
2019-05-25T13:26:56.417Z,36.0
2019-05-25T13:37:12.977Z,35.9
2019-05-25T13:47:27.625Z,35.4
2019-05-25T13:58:25.372Z,34.3
2019-05-25T14:09:26.533Z,34.0
2019-05-25T14:19:53.855Z,33.6
2019-05-25T14:30:43.804Z,33.3
2019-05-25T14:41:29.027Z,30.3
2019-05-25T14:52:50.625Z,31.0
2019-05-25T15:03:05.667Z,31.6
2019-05-25T15:13:54.471Z,32.7
2019-05-25T15:25:42.304Z,33.8
2019-05-25T15:36:00.746Z,34.4
2019-05-25T15:46:55.200Z,35.1
2019-05-25T15:57:19.511Z,35.8
2019-05-25T16:08:14.609Z,36.2
2019-05-25T16:18:42.156Z,36.8
2019-05-25T16:29:34.313Z,37.1
2019-05-25T16:42:17.115Z,37.4
2019-05-25T16:53:06.465Z,37.8
2019-05-25T17:03:28.224Z,37.8
2019-05-25T17:16:43.710Z,37.8
2019-05-25T17:26:59.628Z,37.9
2019-05-25T17:37:47.272Z,38.6
2019-05-25T17:48:34.311Z,39.1
2019-05-25T17:58:50.277Z,40.0
2019-05-25T18:09:01.894Z,40.8
2019-05-25T18:19:18.679Z,41.4
2019-05-25T18:29:37.424Z,41.9
2019-05-25T18:55:27.072Z,41.9
2019-05-25T19:06:26.258Z,41.8
2019-05-25T19:17:18.727Z,42.1
2019-05-25T19:28:18.639Z,42.2
2019-05-25T19:38:37.340Z,42.6
2019-05-25T19:48:54.593Z,42.8
2019-05-25T19:59:45.363Z,43.2
2019-05-25T20:10:33.258Z,43.5
2019-05-25T20:22:00.902Z,43.8
2019-05-25T20:32:48.519Z,43.9
2019-05-25T20:43:34.701Z,44.5
2019-05-25T20:53:54.418Z,44.8
2019-05-25T21:04:43.802Z,44.8
2019-05-25T21:14:55.391Z,45.3
2019-05-25T21:25:11.443Z,45.4
2019-05-25T21:35:25.832Z,45.8
2019-05-25T21:46:14.471Z,46.1
2019-05-25T21:56:34.166Z,46.3
2019-05-25T22:06:49.120Z,46.9
2019-05-25T22:17:36.722Z,46.9
2019-05-25T22:27:50.948Z,46.8
2019-05-25T22:38:05.183Z,47.1
2019-05-25T22:48:23.065Z,47.2
2019-05-25T22:58:39.628Z,47.3
2019-05-25T23:08:56.945Z,47.4
2019-05-25T23:19:11.070Z,47.6
2019-05-25T23:29:25.566Z,47.4
2019-05-25T23:40:13.862Z,47.5
2019-05-25T23:51:00.753Z,47.7
